Time;durP1;ratioP1;P1;durP2;ratioP2;P2;SDS_P1;SDS_P2;PMS_P1;PMS_P2;Temp;Humidity;BMP_temperature;BMP_pressure;BME280_temperature;BME280_humidity;BME280_pressure;Samples;Min_cycle;Max_cycle;Signal;HPM_P1;HPM_P2
2021/12/11 00:02:17;;;;;;;1.50;1.48;;;17.40;42.30;;;;;;5033819;28;20648;-52
2021/12/11 00:04:45;;;;;;;1.50;1.40;;;17.40;42.50;;;;;;5035883;28;20542;-53
2021/12/11 00:07:14;;;;;;;1.45;1.40;;;17.40;42.60;;;;;;5035237;28;20561;-53
2021/12/11 00:09:45;;;;;;;1.20;1.20;;;17.40;42.50;;;;;;5035680;28;20196;-52
2021/12/11 00:12:15;;;;;;;1.40;1.30;;;17.40;42.70;;;;;;5033950;28;20228;-52
2021/12/11 00:14:44;;;;;;;1.40;1.30;;;17.40;42.60;;;;;;5034022;28;20191;-52
2021/12/11 00:17:11;;;;;;;1.23;1.23;;;17.40;42.60;;;;;;5035109;28;20218;-53
2021/12/11 00:19:39;;;;;;;1.55;1.45;;;17.40;42.60;;;;;;5035105;28;20257;-53
2021/12/11 00:22:13;;;;;;;1.17;1.17;;;17.30;42.60;;;;;;5035300;28;20196;-53
2021/12/11 00:24:40;;;;;;;1.30;1.30;;;17.30;42.70;;;;;;5035076;28;20177;-53
2021/12/11 00:27:10;;;;;;;1.10;1.10;;;17.30;42.60;;;;;;5035376;28;20219;-53
2021/12/11 00:29:37;;;;;;;1.30;1.20;;;17.30;42.80;;;;;;5033946;28;20231;-52
2021/12/11 00:32:05;;;;;;;1.25;1.20;;;17.20;42.80;;;;;;5035045;28;20207;-52
2021/12/11 00:34:33;;;;;;;1.42;1.30;;;17.20;42.80;;;;;;5035140;28;20219;-52
2021/12/11 00:37:02;;;;;;;1.40;1.30;;;17.20;42.80;;;;;;5033662;28;20243;-52
2021/12/11 00:39:29;;;;;;;1.38;1.30;;;17.20;42.80;;;;;;5033592;28;20204;-52
2021/12/11 00:41:58;;;;;;;1.17;1.17;;;17.20;42.80;;;;;;5033479;28;20563;-52
2021/12/11 00:44:37;;;;;;;1.30;1.30;;;17.10;43.50;;;;;;5034983;28;20202;-52
2021/12/11 00:47:09;;;;;;;1.30;1.30;;;17.10;42.90;;;;;;5034988;28;20624;-52
2021/12/11 00:49:36;;;;;;;1.48;1.45;;;17.10;43.00;;;;;;5033588;28;20199;-52
2021/12/11 00:52:04;;;;;;;1.17;1.17;;;17.10;43.00;;;;;;5033497;28;20215;-52
2021/12/11 00:54:35;;;;;;;1.30;1.30;;;17.10;43.00;;;;;;5033612;28;20196;-52
2021/12/11 00:57:03;;;;;;;1.40;1.30;;;17.00;43.00;;;;;;5034621;28;20628;-52
2021/12/11 00:59:30;;;;;;;1.20;1.20;;;17.00;43.00;;;;;;5034709;28;20219;-52
2021/12/11 01:01:59;;;;;;;1.60;1.50;;;17.00;43.00;;;;;;5034883;28;20271;-52
2021/12/11 01:04:28;;;;;;;1.40;1.40;;;17.00;43.00;;;;;;5033348;28;20203;-52
2021/12/11 01:06:56;;;;;;;1.40;1.35;;;17.00;42.90;;;;;;5034621;28;20270;-52
2021/12/11 01:09:25;;;;;;;1.20;1.20;;;17.00;43.10;;;;;;5033566;28;20200;-52
2021/12/11 01:11:57;;;;;;;2.00;1.38;;;17.00;43.10;;;;;;5034316;28;20290;-52
2021/12/11 01:14:32;;;;;;;1.33;1.33;;;16.90;43.10;;;;;;5034658;28;20180;-52
2021/12/11 01:17:04;;;;;;;1.40;1.20;;;16.90;43.00;;;;;;5034301;28;20239;-53
2021/12/11 01:19:36;;;;;;;1.63;1.52;;;17.00;43.10;;;;;;5033599;28;20192;-52
2021/12/11 01:22:10;;;;;;;1.50;1.40;;;16.90;43.00;;;;;;5033348;28;20246;-53
2021/12/11 01:24:43;;;;;;;1.48;1.38;;;16.90;43.00;;;;;;5037096;28;20184;-53
2021/12/11 01:27:12;;;;;;;1.30;1.30;;;16.90;43.10;;;;;;5035032;28;20623;-52
2021/12/11 01:29:39;;;;;;;1.40;1.30;;;16.90;43.10;;;;;;5033212;28;20279;-52
2021/12/11 01:32:08;;;;;;;1.40;1.30;;;16.90;43.20;;;;;;5034670;28;20314;-52
2021/12/11 01:34:36;;;;;;;1.20;1.20;;;16.80;43.10;;;;;;5032933;28;20223;-53
2021/12/11 01:37:03;;;;;;;1.30;1.20;;;16.90;43.10;;;;;;5032617;28;20670;-53
2021/12/11 01:39:33;;;;;;;1.30;1.20;;;16.90;43.20;;;;;;5034004;28;20205;-52
2021/12/11 01:42:00;;;;;;;1.33;1.33;;;16.80;43.10;;;;;;5034108;28;20566;-52
2021/12/11 01:44:32;;;;;;;1.27;1.20;;;16.80;43.20;;;;;;5032672;28;20204;-52
2021/12/11 01:47:02;;;;;;;1.30;1.30;;;16.80;43.20;;;;;;5034111;28;20277;-52
2021/12/11 01:49:31;;;;;;;1.40;1.40;;;16.80;43.20;;;;;;5033946;28;20204;-52
2021/12/11 01:51:59;;;;;;;1.30;1.30;;;16.80;43.60;;;;;;5033693;28;20680;-52
2021/12/11 01:54:28;;;;;;;1.10;1.10;;;16.80;43.20;;;;;;5033866;28;20287;-52
2021/12/11 01:56:59;;;;;;;1.45;1.20;;;16.80;43.20;;;;;;5033545;28;20215;-52
2021/12/11 01:59:27;;;;;;;1.30;1.20;;;16.80;43.20;;;;;;5033715;28;20188;-52
2021/12/11 02:02:01;;;;;;;1.10;1.10;;;16.80;43.20;;;;;;5032129;28;20196;-52
2021/12/11 02:04:31;;;;;;;1.25;1.25;;;16.70;43.20;;;;;;5033587;28;20177;-52
2021/12/11 02:07:01;;;;;;;1.35;1.27;;;16.70;43.20;;;;;;5033322;28;20222;-53
2021/12/11 02:09:31;;;;;;;1.10;1.10;;;16.70;43.20;;;;;;5033404;28;20192;-52
2021/12/11 02:12:05;;;;;;;1.10;1.10;;;16.70;43.20;;;;;;5033593;28;20702;-53
2021/12/11 02:14:38;;;;;;;1.40;1.30;;;16.70;43.20;;;;;;5032146;28;20246;-53
2021/12/11 02:17:05;;;;;;;1.20;1.20;;;16.70;43.20;;;;;;5033688;28;20227;-52
2021/12/11 02:19:37;;;;;;;1.20;1.20;;;16.70;43.80;;;;;;5033537;28;20196;-53
2021/12/11 02:22:10;;;;;;;1.40;1.30;;;16.60;43.20;;;;;;5033560;28;20184;-52
2021/12/11 02:24:39;;;;;;;1.17;1.17;;;16.60;43.70;;;;;;5037252;28;20223;-52
2021/12/11 02:27:08;;;;;;;1.10;1.10;;;16.60;43.10;;;;;;5037042;28;20303;-53
2021/12/11 02:29:36;;;;;;;1.10;1.10;;;16.60;43.20;;;;;;5036001;28;20204;-52
2021/12/11 02:32:07;;;;;;;1.23;1.23;;;16.60;43.10;;;;;;5037376;28;20208;-52
2021/12/11 02:34:36;;;;;;;1.02;1.02;;;16.60;43.30;;;;;;5036898;28;20176;-53
2021/12/11 02:37:05;;;;;;;1.20;1.20;;;16.60;43.20;;;;;;5036924;28;20235;-53
2021/12/11 02:39:36;;;;;;;1.17;1.17;;;16.60;43.20;;;;;;5036820;28;20215;-52
2021/12/11 02:42:06;;;;;;;1.20;1.20;;;16.50;43.10;;;;;;5035570;28;20188;-53
2021/12/11 02:44:35;;;;;;;1.10;1.10;;;16.50;43.20;;;;;;5036808;28;20215;-52
2021/12/11 02:47:06;;;;;;;1.20;1.20;;;16.50;43.00;;;;;;5036921;28;20212;-52
2021/12/11 02:49:37;;;;;;;1.05;1.05;;;16.50;43.20;;;;;;5036942;28;20180;-53
2021/12/11 02:52:06;;;;;;;1.08;1.08;;;16.50;43.10;;;;;;5035802;28;20212;-53
2021/12/11 02:54:39;;;;;;;1.10;1.10;;;16.50;43.40;;;;;;5036729;28;20683;-57
2021/12/11 02:57:08;;;;;;;1.20;1.20;;;16.50;43.40;;;;;;5035084;28;20227;-56
2021/12/11 02:59:41;;;;;;;1.00;1.00;;;16.50;43.40;;;;;;5035083;28;20270;-56
2021/12/11 03:02:11;;;;;;;1.00;1.00;;;16.40;43.30;;;;;;5035012;28;20199;-57
2021/12/11 03:04:44;;;;;;;1.33;1.30;;;16.50;43.40;;;;;;5035005;28;20258;-57
2021/12/11 03:09:46;;;;;;;1.25;1.20;;;16.40;43.50;;;;;;4977306;28;20213;-68
2021/12/11 03:12:13;;;;;;;1.05;1.05;;;16.40;43.40;;;;;;4979731;28;20299;-68
2021/12/11 03:14:41;;;;;;;1.10;1.10;;;16.40;43.50;;;;;;4997481;28;20189;-68
2021/12/11 03:17:08;;;;;;;1.20;1.20;;;16.40;44.20;;;;;;4997296;28;20621;-68
2021/12/11 03:19:36;;;;;;;1.25;1.15;;;16.40;44.30;;;;;;5016958;28;20623;-69
2021/12/11 03:22:06;;;;;;;1.00;1.00;;;16.40;43.60;;;;;;4999563;28;20212;-70
2021/12/11 03:24:34;;;;;;;1.08;1.08;;;16.30;43.60;;;;;;4999301;28;20201;-69
2021/12/11 03:27:03;;;;;;;1.15;1.15;;;16.30;43.60;;;;;;5016281;28;20263;-69
2021/12/11 03:29:30;;;;;;;1.15;1.15;;;16.30;43.60;;;;;;5015158;28;20224;-68
2021/12/11 03:31:57;;;;;;;1.10;1.10;;;16.30;43.60;;;;;;4998654;28;20575;-69
2021/12/11 03:34:26;;;;;;;1.20;1.20;;;16.30;43.60;;;;;;4997752;28;20209;-69
2021/12/11 03:36:53;;;;;;;1.10;1.10;;;16.30;43.60;;;;;;4998472;28;20627;-69
2021/12/11 03:39:21;;;;;;;1.20;1.20;;;16.30;43.70;;;;;;5073174;23;20314;-52
2021/12/11 03:41:49;;;;;;;1.10;1.10;;;16.30;43.70;;;;;;5055620;28;20202;-52
2021/12/11 03:44:18;;;;;;;1.00;1.00;;;16.20;43.60;;;;;;5055557;28;20271;-50
2021/12/11 03:46:48;;;;;;;1.10;1.10;;;16.20;43.70;;;;;;5056423;28;20196;-50
2021/12/11 03:49:17;;;;;;;1.15;1.15;;;16.20;43.70;;;;;;5074049;28;20285;-49
2021/12/11 03:51:47;;;;;;;0.95;0.95;;;16.20;43.70;;;;;;5075499;28;20677;-50
2021/12/11 03:54:23;;;;;;;1.10;1.10;;;16.20;43.80;;;;;;5075197;28;20246;-48
2021/12/11 03:56:50;;;;;;;1.00;1.00;;;16.20;43.90;;;;;;5074149;28;20225;-47
2021/12/11 03:59:19;;;;;;;1.20;1.13;;;16.20;43.80;;;;;;5074024;28;20206;-48
2021/12/11 04:01:48;;;;;;;1.17;1.17;;;16.20;43.70;;;;;;5075364;28;20628;-47
2021/12/11 04:04:18;;;;;;;1.30;1.30;;;16.10;43.70;;;;;;5075290;28;20262;-48
2021/12/11 04:06:45;;;;;;;1.17;1.17;;;16.20;43.80;;;;;;5075081;28;20195;-48
2021/12/11 04:09:13;;;;;;;1.05;1.05;;;16.20;43.80;;;;;;5075150;28;20621;-48
2021/12/11 04:11:40;;;;;;;1.10;1.10;;;16.10;43.80;;;;;;5075320;28;20230;-48
2021/12/11 04:14:09;;;;;;;1.10;1.10;;;16.10;43.70;;;;;;5074079;28;20221;-48
2021/12/11 04:16:38;;;;;;;1.20;1.20;;;16.10;44.00;;;;;;5073587;28;20253;-48
2021/12/11 04:19:05;;;;;;;1.10;1.10;;;16.10;43.90;;;;;;5075294;28;20678;-48
2021/12/11 04:21:32;;;;;;;1.15;1.15;;;16.10;43.90;;;;;;5075083;28;20214;-48
2021/12/11 04:24:00;;;;;;;1.30;1.30;;;16.10;43.80;;;;;;5075385;28;20190;-48
2021/12/11 04:26:27;;;;;;;1.02;1.02;;;16.10;43.90;;;;;;5075079;28;20255;-48
2021/12/11 04:28:54;;;;;;;1.20;1.20;;;16.10;43.80;;;;;;5075256;28;20238;-48
2021/12/11 04:31:23;;;;;;;1.10;1.10;;;16.10;43.80;;;;;;5075623;28;20191;-48
2021/12/11 04:33:53;;;;;;;1.10;1.10;;;16.10;43.70;;;;;;5073915;28;20206;-49
2021/12/11 04:36:22;;;;;;;1.20;1.20;;;16.10;43.60;;;;;;5075099;28;20187;-48
2021/12/11 04:38:49;;;;;;;1.30;1.30;;;16.20;43.70;;;;;;5073211;28;20655;-49
2021/12/11 04:41:22;;;;;;;1.10;1.10;;;16.20;43.60;;;;;;5074670;28;20256;-48
2021/12/11 04:43:52;;;;;;;1.25;1.20;;;16.20;43.60;;;;;;5074131;28;20290;-49
2021/12/11 04:46:19;;;;;;;1.20;1.20;;;16.20;43.60;;;;;;5072015;28;20219;-48
2021/12/11 04:48:55;;;;;;;1.10;1.10;;;16.20;43.50;;;;;;5074503;28;20218;-48
2021/12/11 04:51:28;;;;;;;1.20;1.20;;;16.20;43.50;;;;;;5074694;28;20182;-48
2021/12/11 04:54:04;;;;;;;1.20;1.20;;;16.30;43.60;;;;;;5074232;28;20199;-48
2021/12/11 04:56:56;;;;;;;1.05;1.05;;;16.30;43.40;;;;;;5074491;28;20198;-50
2021/12/11 04:59:40;;;;;;;1.00;1.00;;;16.30;43.40;;;;;;5074246;28;20183;-48
2021/12/11 05:02:20;;;;;;;1.08;1.08;;;16.30;43.40;;;;;;5072576;28;20191;-48
2021/12/11 05:05:01;;;;;;;1.20;1.20;;;16.30;43.30;;;;;;5073874;28;20192;-48
2021/12/11 05:07:36;;;;;;;1.02;1.02;;;16.30;43.30;;;;;;5073968;28;20211;-49
2021/12/11 05:10:13;;;;;;;1.20;1.20;;;16.40;43.40;;;;;;5074099;28;20190;-49
2021/12/11 05:12:40;;;;;;;1.10;1.10;;;16.40;43.40;;;;;;5074076;28;20693;-49
2021/12/11 05:15:09;;;;;;;1.00;1.00;;;16.40;43.30;;;;;;5073789;28;20660;-48
2021/12/11 05:17:37;;;;;;;1.02;1.02;;;16.30;43.30;;;;;;5073844;28;20202;-48
2021/12/11 05:20:05;;;;;;;1.17;1.17;;;16.40;43.30;;;;;;5072379;28;20230;-48
2021/12/11 05:22:33;;;;;;;1.10;1.10;;;16.40;43.30;;;;;;5073721;28;20190;-48
2021/12/11 05:25:01;;;;;;;1.10;1.10;;;16.40;43.20;;;;;;5073675;28;20256;-48
2021/12/11 05:27:28;;;;;;;1.10;1.10;;;16.40;43.10;;;;;;5072308;28;20218;-48
2021/12/11 05:29:55;;;;;;;1.20;1.20;;;16.50;43.20;;;;;;5072178;28;20721;-48
2021/12/11 05:32:25;;;;;;;1.23;1.23;;;16.40;43.00;;;;;;5073362;28;20189;-48
2021/12/11 05:34:52;;;;;;;1.10;1.10;;;16.50;43.00;;;;;;5073394;28;20187;-48
2021/12/11 05:37:20;;;;;;;1.10;1.10;;;16.50;43.10;;;;;;5071846;28;20559;-48
2021/12/11 05:39:49;;;;;;;1.20;1.20;;;16.50;43.20;;;;;;5073057;28;20259;-48
2021/12/11 05:42:16;;;;;;;1.30;1.30;;;16.50;43.50;;;;;;5071884;28;20202;-48
2021/12/11 05:44:43;;;;;;;1.27;1.27;;;16.60;43.60;;;;;;5073586;28;20197;-48
2021/12/11 05:47:11;;;;;;;1.35;1.35;;;16.60;43.60;;;;;;5073442;28;20542;-48
2021/12/11 05:49:38;;;;;;;1.30;1.30;;;16.60;43.20;;;;;;5073565;28;20218;-49
2021/12/11 05:52:06;;;;;;;1.10;1.10;;;16.60;43.50;;;;;;5072195;28;20201;-49
2021/12/11 05:54:34;;;;;;;1.15;1.10;;;16.60;43.00;;;;;;5071889;28;20283;-49
2021/12/11 05:57:06;;;;;;;1.27;1.27;;;16.70;43.20;;;;;;5071461;28;20325;-48
2021/12/11 05:59:33;;;;;;;1.10;1.10;;;16.70;43.20;;;;;;5071707;28;20233;-48
2021/12/11 06:02:01;;;;;;;1.20;1.20;;;16.70;43.40;;;;;;5073190;28;20643;-49
2021/12/11 06:04:31;;;;;;;1.38;1.27;;;16.80;43.50;;;;;;5072941;28;20387;-49
2021/12/11 06:06:59;;;;;;;1.30;1.20;;;16.80;43.60;;;;;;5073185;28;20305;-49
2021/12/11 06:09:29;;;;;;;1.33;1.33;;;16.80;43.20;;;;;;5071625;28;20206;-49
2021/12/11 06:11:59;;;;;;;1.35;1.30;;;16.80;43.30;;;;;;5073098;28;20210;-50
2021/12/11 06:14:27;;;;;;;1.10;1.10;;;16.80;43.20;;;;;;5072847;28;20214;-49
2021/12/11 06:16:56;;;;;;;1.17;1.17;;;16.90;43.30;;;;;;5071423;28;20215;-48
2021/12/11 06:19:24;;;;;;;1.42;1.40;;;16.90;43.30;;;;;;5072790;28;20217;-49
2021/12/11 06:21:51;;;;;;;1.33;1.23;;;16.90;43.30;;;;;;5071527;28;20670;-48
2021/12/11 06:24:19;;;;;;;1.10;1.10;;;16.90;43.30;;;;;;5073654;28;20190;-49
2021/12/11 06:26:46;;;;;;;1.20;1.20;;;16.90;43.20;;;;;;5072690;28;20297;-49
2021/12/11 06:29:14;;;;;;;1.45;1.35;;;16.90;43.20;;;;;;5073323;28;20187;-51
2021/12/11 06:31:44;;;;;;;1.30;1.20;;;16.90;43.30;;;;;;5072796;28;20219;-50
2021/12/11 06:34:11;;;;;;;1.10;1.10;;;17.00;43.20;;;;;;5072557;28;20298;-51
2021/12/11 06:36:38;;;;;;;1.10;1.10;;;16.90;43.00;;;;;;5071650;28;20210;-51
2021/12/11 06:39:11;;;;;;;1.27;1.27;;;17.00;43.00;;;;;;5072537;28;20194;-51
2021/12/11 06:41:40;;;;;;;1.20;1.10;;;17.00;43.00;;;;;;5073132;28;20171;-51
2021/12/11 06:44:08;;;;;;;1.30;1.30;;;17.00;42.90;;;;;;5073171;28;20233;-51
2021/12/11 06:46:35;;;;;;;1.23;1.23;;;17.00;42.80;;;;;;5073194;28;20379;-51
2021/12/11 06:49:04;;;;;;;1.40;1.30;;;17.00;42.80;;;;;;5073169;28;20286;-51
2021/12/11 06:51:32;;;;;;;1.40;1.30;;;17.00;42.80;;;;;;5072391;28;20624;-51
2021/12/11 06:54:02;;;;;;;1.30;1.30;;;17.00;42.80;;;;;;5071726;28;20683;-51
2021/12/11 06:56:29;;;;;;;1.42;1.38;;;17.00;42.50;;;;;;5073164;28;20240;-50
2021/12/11 06:58:57;;;;;;;1.40;1.30;;;17.00;42.40;;;;;;5072434;28;20210;-50
2021/12/11 07:01:24;;;;;;;1.40;1.30;;;17.10;42.50;;;;;;5071497;28;20286;-48
2021/12/11 07:03:51;;;;;;;1.55;1.40;;;17.10;42.60;;;;;;5072559;28;20238;-48
2021/12/11 07:06:20;;;;;;;1.20;1.20;;;17.10;42.50;;;;;;5071275;28;20261;-48
2021/12/11 07:08:49;;;;;;;1.30;1.30;;;17.10;42.40;;;;;;5072476;28;20211;-48
2021/12/11 07:11:16;;;;;;;1.40;1.30;;;17.10;42.30;;;;;;5074975;28;20202;-48
2021/12/11 07:13:44;;;;;;;1.60;1.50;;;17.10;42.30;;;;;;5075792;28;20230;-48
2021/12/11 07:16:12;;;;;;;1.63;1.55;;;17.10;42.30;;;;;;5076747;28;20214;-48
2021/12/11 07:18:39;;;;;;;1.70;1.60;;;17.00;42.30;;;;;;5074895;28;20223;-48
2021/12/11 07:21:07;;;;;;;1.80;1.42;;;17.10;42.40;;;;;;5074686;28;20569;-48
2021/12/11 07:23:36;;;;;;;2.67;1.50;;;17.10;42.40;;;;;;5076035;28;20211;-48
2021/12/11 07:26:05;;;;;;;1.60;1.50;;;17.10;42.30;;;;;;5076042;28;20197;-48
2021/12/11 07:28:32;;;;;;;1.70;1.60;;;17.10;42.30;;;;;;5075735;28;20682;-47
2021/12/11 07:31:00;;;;;;;1.67;1.58;;;17.10;42.30;;;;;;5075964;28;20191;-48
2021/12/11 07:33:28;;;;;;;1.70;1.60;;;17.10;42.20;;;;;;5074616;28;20241;-48
2021/12/11 07:35:55;;;;;;;1.73;1.63;;;17.10;42.10;;;;;;5075631;28;20221;-48
2021/12/11 07:38:22;;;;;;;1.80;1.70;;;17.10;42.20;;;;;;5074274;28;20211;-48
2021/12/11 07:40:53;;;;;;;1.92;1.83;;;17.20;42.10;;;;;;5074876;28;20195;-48
2021/12/11 07:43:21;;;;;;;2.08;1.95;;;17.10;42.10;;;;;;5074050;28;20195;-48
2021/12/11 07:45:49;;;;;;;1.77;1.67;;;17.10;42.10;;;;;;5074498;28;20194;-48
2021/12/11 07:48:17;;;;;;;2.10;2.00;;;17.10;41.70;;;;;;5074102;28;20218;-49
2021/12/11 07:50:44;;;;;;;2.10;2.00;;;17.20;41.90;;;;;;5075460;28;20672;-48
2021/12/11 07:53:11;;;;;;;2.20;2.00;;;17.20;41.90;;;;;;5075772;28;20187;-49
2021/12/11 07:55:38;;;;;;;2.03;1.90;;;17.20;41.70;;;;;;5074118;28;20289;-48
2021/12/11 07:58:07;;;;;;;2.35;2.17;;;17.20;41.50;;;;;;5074245;28;20280;-49
2021/12/11 08:00:35;;;;;;;2.20;2.10;;;17.20;41.60;;;;;;5075214;28;20213;-49
2021/12/11 08:03:03;;;;;;;2.30;2.20;;;17.30;41.40;;;;;;5075144;28;20611;-48
2021/12/11 08:05:30;;;;;;;1.92;1.83;;;17.30;41.40;;;;;;5075428;28;20248;-48
2021/12/11 08:08:01;;;;;;;2.60;2.22;;;17.30;41.50;;;;;;5075041;28;20214;-48
2021/12/11 08:10:30;;;;;;;2.58;2.38;;;17.30;41.40;;;;;;5075506;28;20239;-49
2021/12/11 08:12:57;;;;;;;2.38;2.17;;;17.40;41.40;;;;;;5075159;28;20599;-49
2021/12/11 08:15:27;;;;;;;2.42;2.22;;;17.30;41.20;;;;;;5073565;28;20690;-49
2021/12/11 08:17:54;;;;;;;2.10;2.00;;;17.30;41.20;;;;;;5074907;28;20210;-49
2021/12/11 08:20:23;;;;;;;2.70;2.50;;;17.40;41.40;;;;;;5073101;28;20195;-49
2021/12/11 08:22:51;;;;;;;2.40;2.30;;;17.40;41.20;;;;;;5074531;28;20749;-48
2021/12/11 08:25:18;;;;;;;2.40;2.30;;;17.40;41.30;;;;;;5074709;28;20187;-49
2021/12/11 08:27:45;;;;;;;2.60;2.40;;;17.40;41.20;;;;;;5074589;28;20230;-49
2021/12/11 08:30:14;;;;;;;2.50;2.33;;;17.30;41.10;;;;;;5074585;28;20195;-48
2021/12/11 08:32:44;;;;;;;2.67;2.47;;;17.40;41.10;;;;;;5073140;28;20222;-49
2021/12/11 08:35:12;;;;;;;2.47;2.28;;;17.40;41.00;;;;;;5074484;28;20253;-49
2021/12/11 08:37:42;;;;;;;2.40;2.28;;;17.40;41.00;;;;;;5072924;28;20215;-49
2021/12/11 08:40:11;;;;;;;2.63;2.42;;;17.40;41.10;;;;;;5074206;28;20227;-49
2021/12/11 08:42:39;;;;;;;2.58;2.38;;;17.40;41.00;;;;;;5074812;28;20167;-49
2021/12/11 08:45:09;;;;;;;2.63;2.30;;;17.40;41.00;;;;;;5074519;28;20190;-49
2021/12/11 08:47:39;;;;;;;2.40;2.20;;;17.40;40.90;;;;;;5074212;28;20280;-48
2021/12/11 08:50:09;;;;;;;3.20;2.80;;;17.40;41.00;;;;;;5074271;28;20187;-49
2021/12/11 08:52:38;;;;;;;2.70;2.50;;;17.50;41.00;;;;;;5074105;28;20664;-48
2021/12/11 08:55:06;;;;;;;2.90;2.45;;;17.50;41.00;;;;;;5074207;28;20575;-49
2021/12/11 08:57:36;;;;;;;2.67;2.47;;;17.50;40.80;;;;;;5073873;28;20226;-49
2021/12/11 09:00:08;;;;;;;2.75;2.55;;;17.50;40.80;;;;;;5072634;28;20270;-49
2021/12/11 09:02:38;;;;;;;2.33;2.22;;;17.50;40.90;;;;;;5072551;28;20206;-49
2021/12/11 09:05:10;;;;;;;2.50;2.30;;;17.50;41.30;;;;;;5074052;28;20647;-49
2021/12/11 09:07:40;;;;;;;2.97;2.50;;;17.50;41.10;;;;;;5074154;28;20221;-49
2021/12/11 09:10:12;;;;;;;2.80;2.60;;;17.50;41.00;;;;;;5072860;28;20230;-49
2021/12/11 09:23:16;;;;;;;2.65;2.40;;;17.50;40.90;;;;;;5057040;28;20284;-49
2021/12/11 09:25:47;;;;;;;2.85;2.65;;;17.50;41.10;;;;;;5072254;28;20689;-49
2021/12/11 09:28:16;;;;;;;3.38;3.13;;;17.50;41.00;;;;;;5072092;28;20210;-48
2021/12/11 09:30:49;;;;;;;2.90;2.70;;;17.50;40.90;;;;;;5073428;28;20277;-48
2021/12/11 09:33:19;;;;;;;3.15;2.95;;;17.50;40.80;;;;;;5073518;28;20636;-48
2021/12/11 09:35:49;;;;;;;2.53;2.35;;;17.50;41.00;;;;;;5071718;28;20222;-48
2021/12/11 09:41:19;;;;;;;3.00;2.70;;;17.50;40.80;;;;;;4992657;28;20474;-66
2021/12/11 09:43:48;;;;;;;3.22;2.92;;;17.60;41.10;;;;;;4994811;28;20196;-65
2021/12/11 09:46:19;;;;;;;2.55;2.40;;;17.60;40.90;;;;;;4992918;28;20210;-66
2021/12/11 09:48:48;;;;;;;2.85;2.65;;;17.60;41.00;;;;;;4999108;28;20205;-66
2021/12/11 09:51:17;;;;;;;2.47;2.38;;;17.60;40.90;;;;;;5028693;28;20200;-66
2021/12/11 09:53:46;;;;;;;3.03;2.83;;;17.60;40.90;;;;;;5014065;28;20207;-67
2021/12/11 09:56:21;;;;;;;3.53;3.28;;;17.60;40.70;;;;;;5028795;28;20251;-66
2021/12/11 09:58:50;;;;;;;2.75;2.55;;;17.70;40.80;;;;;;5013373;28;20204;-67
2021/12/11 10:01:20;;;;;;;2.50;2.30;;;17.70;41.00;;;;;;5028540;28;20201;-66
2021/12/11 10:03:50;;;;;;;2.53;2.42;;;17.70;41.00;;;;;;5028999;28;20262;-66
2021/12/11 10:06:38;;;;;;;2.83;2.63;;;17.70;40.90;;;;;;5028914;28;20232;-66
2021/12/11 10:09:17;;;;;;;2.88;2.50;;;17.70;40.90;;;;;;5028886;28;20259;-66
2021/12/11 10:12:03;;;;;;;2.60;2.40;;;17.80;40.80;;;;;;5029662;28;20204;-66
2021/12/11 10:14:34;;;;;;;2.67;2.50;;;17.80;40.80;;;;;;5013613;28;20219;-66
2021/12/11 10:17:03;;;;;;;2.58;2.38;;;17.80;40.60;;;;;;5028900;28;20224;-66
2021/12/11 10:19:30;;;;;;;2.70;2.50;;;17.80;40.80;;;;;;5028723;28;20635;-66
2021/12/11 10:22:01;;;;;;;2.80;2.60;;;17.90;40.70;;;;;;5012242;28;20196;-66
2021/12/11 10:24:29;;;;;;;2.50;2.30;;;17.90;40.80;;;;;;5012298;28;20184;-66
2021/12/11 10:26:57;;;;;;;2.53;2.33;;;17.90;40.60;;;;;;5028518;28;20283;-66
2021/12/11 10:29:24;;;;;;;2.35;2.25;;;17.90;40.60;;;;;;5012159;28;20724;-66
2021/12/11 10:31:54;;;;;;;2.58;2.38;;;18.00;40.60;;;;;;5028409;28;20201;-66
2021/12/11 10:34:23;;;;;;;2.47;2.28;;;18.00;40.60;;;;;;5012480;28;20212;-66
2021/12/11 10:36:52;;;;;;;2.78;2.40;;;17.90;40.20;;;;;;5028172;28;20207;-66
2021/12/11 10:39:20;;;;;;;2.10;2.00;;;18.00;40.10;;;;;;5011901;28;20323;-67
2021/12/11 10:41:47;;;;;;;2.20;2.10;;;18.00;40.30;;;;;;5013170;28;20197;-66
2021/12/11 10:44:15;;;;;;;2.30;2.15;;;18.00;40.10;;;;;;5030022;28;20193;-66
2021/12/11 10:46:44;;;;;;;2.85;2.65;;;18.00;40.20;;;;;;5016867;28;20196;-66
2021/12/11 10:49:15;;;;;;;2.08;1.98;;;18.00;40.10;;;;;;5031946;28;20651;-66
2021/12/11 10:51:44;;;;;;;2.10;2.00;;;18.00;40.00;;;;;;5031979;28;20291;-66
2021/12/11 10:54:12;;;;;;;2.22;2.10;;;18.10;40.20;;;;;;5032006;28;20351;-67
2021/12/11 10:56:40;;;;;;;2.42;2.28;;;18.10;40.00;;;;;;5015299;28;20624;-66
2021/12/11 10:59:09;;;;;;;2.45;2.35;;;18.10;40.70;;;;;;5015448;28;20240;-66
2021/12/11 11:01:38;;;;;;;2.35;2.17;;;18.00;39.80;;;;;;5031885;28;20207;-66
2021/12/11 11:04:08;;;;;;;2.35;2.20;;;18.10;39.80;;;;;;5031675;28;20243;-66
2021/12/11 11:06:36;;;;;;;2.70;2.50;;;18.10;39.80;;;;;;5015269;28;20280;-66
2021/12/11 11:09:04;;;;;;;2.33;2.22;;;18.10;40.00;;;;;;5015096;28;20228;-67
2021/12/11 11:11:32;;;;;;;2.60;2.40;;;18.20;39.80;;;;;;5015208;28;20216;-66
2021/12/11 11:14:01;;;;;;;2.20;2.10;;;18.10;39.80;;;;;;5016267;28;20562;-65
2021/12/11 11:16:28;;;;;;;2.80;2.60;;;18.20;39.80;;;;;;5031629;28;20219;-66
2021/12/11 11:18:56;;;;;;;2.47;2.28;;;18.20;39.80;;;;;;5031507;28;20224;-66
2021/12/11 11:21:25;;;;;;;2.50;2.30;;;18.20;39.80;;;;;;5015933;28;20189;-66
2021/12/11 11:23:54;;;;;;;2.22;2.13;;;18.20;39.80;;;;;;5014694;28;20201;-66
2021/12/11 11:26:22;;;;;;;2.10;1.90;;;18.20;39.70;;;;;;5031213;28;20201;-66
2021/12/11 11:28:49;;;;;;;2.20;2.10;;;18.20;39.80;;;;;;5015834;28;20212;-66
2021/12/11 11:31:18;;;;;;;2.22;2.13;;;18.20;39.50;;;;;;5031025;28;20200;-66
2021/12/11 11:33:46;;;;;;;2.30;2.10;;;18.20;39.60;;;;;;5014615;28;20766;-67
2021/12/11 11:36:16;;;;;;;2.30;2.10;;;18.30;39.60;;;;;;5030789;28;20634;-67
2021/12/11 11:38:49;;;;;;;2.60;2.40;;;18.30;39.70;;;;;;5030757;28;20234;-66
2021/12/11 11:41:19;;;;;;;2.20;2.10;;;18.30;39.60;;;;;;5015710;28;20181;-66
2021/12/11 11:43:46;;;;;;;2.58;2.38;;;18.30;39.60;;;;;;5031278;28;20193;-66
2021/12/11 11:46:14;;;;;;;2.13;2.03;;;18.30;39.40;;;;;;5015725;28;20251;-66
2021/12/11 11:48:42;;;;;;;2.10;2.00;;;18.30;39.40;;;;;;5015460;28;20287;-66
2021/12/11 11:51:11;;;;;;;2.10;2.00;;;18.30;39.40;;;;;;5031051;28;20672;-66
2021/12/11 11:53:38;;;;;;;2.45;2.25;;;18.30;39.70;;;;;;5014388;28;20203;-66
2021/12/11 11:56:07;;;;;;;2.20;2.10;;;18.30;40.00;;;;;;5029882;28;20224;-66
2021/12/11 11:58:36;;;;;;;2.20;2.10;;;18.30;39.30;;;;;;5030852;28;20579;-66
2021/12/11 12:01:13;;;;;;;2.20;2.00;;;18.30;39.30;;;;;;5014728;28;20259;-66
2021/12/11 12:03:40;;;;;;;2.50;2.30;;;18.30;39.20;;;;;;5015156;28;20192;-66
2021/12/11 12:06:11;;;;;;;2.47;2.28;;;18.30;39.10;;;;;;5015591;28;20224;-66
2021/12/11 12:08:38;;;;;;;2.65;2.40;;;18.30;39.00;;;;;;5015416;28;20232;-66
2021/12/11 12:11:05;;;;;;;2.47;2.25;;;18.30;39.00;;;;;;5013821;28;20558;-66
2021/12/11 12:13:33;;;;;;;2.20;2.10;;;18.30;39.20;;;;;;5015241;28;20287;-66
2021/12/11 12:16:05;;;;;;;2.40;2.20;;;18.30;39.20;;;;;;5030034;28;20213;-66
2021/12/11 12:18:32;;;;;;;2.50;2.30;;;18.40;39.70;;;;;;5030220;28;20323;-66
2021/12/11 12:21:02;;;;;;;2.30;2.20;;;18.30;39.00;;;;;;5030038;28;20257;-66
2021/12/11 12:23:31;;;;;;;2.10;2.00;;;18.40;39.60;;;;;;5015526;28;20193;-66
2021/12/11 12:26:01;;;;;;;2.53;2.28;;;18.40;39.10;;;;;;5015447;28;20216;-66
2021/12/11 12:28:28;;;;;;;2.15;2.05;;;18.30;39.10;;;;;;5014134;28;20197;-66
2021/12/11 12:30:58;;;;;;;2.60;2.40;;;18.40;39.10;;;;;;5016296;28;20300;-66
2021/12/11 12:33:28;;;;;;;2.42;2.30;;;18.40;39.20;;;;;;5016318;28;20561;-66
2021/12/11 12:35:55;;;;;;;2.40;2.20;;;18.40;39.20;;;;;;5029872;28;20306;-66
2021/12/11 12:38:23;;;;;;;2.08;1.88;;;18.30;39.10;;;;;;5013207;28;20292;-66
2021/12/11 12:40:55;;;;;;;3.58;2.33;;;18.30;39.10;;;;;;5029827;28;20200;-66
2021/12/11 12:43:53;;;;;;;2.40;2.20;;;18.30;39.10;;;;;;5014397;28;20217;-66
2021/12/11 12:46:23;;;;;;;2.10;2.00;;;18.40;39.30;;;;;;5013088;28;20522;-66
2021/12/11 12:48:51;;;;;;;2.40;2.30;;;18.30;39.20;;;;;;5014509;28;20216;-66
2021/12/11 12:51:19;;;;;;;2.42;2.28;;;18.30;39.10;;;;;;5013089;28;20205;-66
2021/12/11 12:53:47;;;;;;;3.38;2.33;;;18.30;39.00;;;;;;5030090;28;20203;-66
2021/12/11 12:56:15;;;;;;;2.40;2.20;;;18.30;38.90;;;;;;5014618;28;20271;-66
2021/12/11 12:58:45;;;;;;;2.20;2.10;;;18.30;39.20;;;;;;5029621;28;20224;-67
2021/12/11 13:01:14;;;;;;;2.22;2.00;;;18.30;39.80;;;;;;5029551;28;20200;-66
2021/12/11 13:03:42;;;;;;;2.50;2.30;;;18.30;39.30;;;;;;5029298;28;20684;-66
2021/12/11 13:06:12;;;;;;;3.10;2.17;;;18.30;39.40;;;;;;5014317;28;20208;-66
2021/12/11 13:08:41;;;;;;;2.25;2.05;;;18.30;39.40;;;;;;5012224;28;20259;-66
2021/12/11 13:11:09;;;;;;;2.30;2.10;;;18.30;39.30;;;;;;5014463;28;20189;-66
2021/12/11 13:13:37;;;;;;;2.35;2.15;;;18.30;39.30;;;;;;5014781;28;20197;-66
2021/12/11 13:16:06;;;;;;;2.50;2.30;;;18.30;40.00;;;;;;5013707;28;20220;-67